sensor_id;sensor_type;location;lat;lon;timestamp;P1;durP1;ratioP1;P2;durP2;ratioP2
3189;SDS011;1606;51.946;10.558;2023-05-07T00:00:24;34.73;;;21.90;;
3189;SDS011;1606;51.946;10.558;2023-05-07T00:02:52;35.13;;;23.40;;
3189;SDS011;1606;51.946;10.558;2023-05-07T00:05:20;37.73;;;22.03;;
3189;SDS011;1606;51.946;10.558;2023-05-07T00:07:49;31.47;;;19.70;;
3189;SDS011;1606;51.946;10.558;2023-05-07T00:10:18;29.43;;;18.73;;
3189;SDS011;1606;51.946;10.558;2023-05-07T00:12:46;34.87;;;21.53;;
3189;SDS011;1606;51.946;10.558;2023-05-07T00:15:14;30.70;;;19.07;;
3189;SDS011;1606;51.946;10.558;2023-05-07T00:17:42;31.30;;;19.37;;
3189;SDS011;1606;51.946;10.558;2023-05-07T00:20:10;34.70;;;20.43;;
3189;SDS011;1606;51.946;10.558;2023-05-07T00:22:39;33.90;;;19.73;;
3189;SDS011;1606;51.946;10.558;2023-05-07T00:25:08;27.70;;;18.77;;
3189;SDS011;1606;51.946;10.558;2023-05-07T00:27:36;29.30;;;19.60;;
3189;SDS011;1606;51.946;10.558;2023-05-07T00:30:04;29.60;;;19.40;;
3189;SDS011;1606;51.946;10.558;2023-05-07T00:32:34;29.70;;;19.17;;
3189;SDS011;1606;51.946;10.558;2023-05-07T00:35:03;29.33;;;17.60;;
3189;SDS011;1606;51.946;10.558;2023-05-07T00:37:31;29.33;;;18.80;;
3189;SDS011;1606;51.946;10.558;2023-05-07T00:39:58;32.40;;;19.13;;
3189;SDS011;1606;51.946;10.558;2023-05-07T00:42:28;29.63;;;19.50;;
3189;SDS011;1606;51.946;10.558;2023-05-07T00:44:56;29.00;;;19.60;;
3189;SDS011;1606;51.946;10.558;2023-05-07T00:47:24;27.47;;;18.00;;
3189;SDS011;1606;51.946;10.558;2023-05-07T00:49:52;30.20;;;18.43;;
3189;SDS011;1606;51.946;10.558;2023-05-07T00:52:20;28.73;;;18.77;;
3189;SDS011;1606;51.946;10.558;2023-05-07T00:54:51;24.70;;;16.97;;
3189;SDS011;1606;51.946;10.558;2023-05-07T00:57:19;29.00;;;18.07;;
3189;SDS011;1606;51.946;10.558;2023-05-07T00:59:49;28.43;;;17.63;;
3189;SDS011;1606;51.946;10.558;2023-05-07T01:02:18;29.67;;;18.30;;
3189;SDS011;1606;51.946;10.558;2023-05-07T01:04:46;33.60;;;17.58;;
3189;SDS011;1606;51.946;10.558;2023-05-07T01:07:14;26.47;;;18.73;;
3189;SDS011;1606;51.946;10.558;2023-05-07T01:09:42;28.00;;;19.00;;
3189;SDS011;1606;51.946;10.558;2023-05-07T01:12:10;29.80;;;18.00;;
3189;SDS011;1606;51.946;10.558;2023-05-07T01:14:39;27.93;;;17.47;;
3189;SDS011;1606;51.946;10.558;2023-05-07T01:17:08;27.90;;;18.30;;
3189;SDS011;1606;51.946;10.558;2023-05-07T01:19:36;27.73;;;18.13;;
3189;SDS011;1606;51.946;10.558;2023-05-07T01:22:09;25.10;;;17.80;;
3189;SDS011;1606;51.946;10.558;2023-05-07T01:24:39;26.23;;;18.33;;
3189;SDS011;1606;51.946;10.558;2023-05-07T01:27:07;25.20;;;15.97;;
3189;SDS011;1606;51.946;10.558;2023-05-07T01:29:35;23.67;;;16.60;;
3189;SDS011;1606;51.946;10.558;2023-05-07T01:32:02;22.80;;;14.57;;
3189;SDS011;1606;51.946;10.558;2023-05-07T01:34:32;21.83;;;14.90;;
3189;SDS011;1606;51.946;10.558;2023-05-07T01:37:03;18.77;;;13.10;;
3189;SDS011;1606;51.946;10.558;2023-05-07T01:39:31;21.80;;;13.47;;
3189;SDS011;1606;51.946;10.558;2023-05-07T01:42:01;21.97;;;13.70;;
3189;SDS011;1606;51.946;10.558;2023-05-07T01:44:29;23.23;;;12.17;;
3189;SDS011;1606;51.946;10.558;2023-05-07T01:46:57;19.00;;;12.40;;
3189;SDS011;1606;51.946;10.558;2023-05-07T01:49:25;19.33;;;12.73;;
3189;SDS011;1606;51.946;10.558;2023-05-07T01:51:53;18.83;;;11.33;;
3189;SDS011;1606;51.946;10.558;2023-05-07T01:54:24;19.97;;;11.93;;
3189;SDS011;1606;51.946;10.558;2023-05-07T01:56:54;18.80;;;11.80;;
3189;SDS011;1606;51.946;10.558;2023-05-07T01:59:24;19.13;;;11.87;;
3189;SDS011;1606;51.946;10.558;2023-05-07T02:01:52;19.07;;;12.40;;
3189;SDS011;1606;51.946;10.558;2023-05-07T02:04:20;17.50;;;11.83;;
3189;SDS011;1606;51.946;10.558;2023-05-07T02:06:48;21.77;;;13.07;;
3189;SDS011;1606;51.946;10.558;2023-05-07T02:09:16;19.87;;;11.93;;
3189;SDS011;1606;51.946;10.558;2023-05-07T02:11:44;21.20;;;14.83;;
3189;SDS011;1606;51.946;10.558;2023-05-07T02:14:11;20.47;;;13.60;;
3189;SDS011;1606;51.946;10.558;2023-05-07T02:16:40;22.37;;;14.00;;
3189;SDS011;1606;51.946;10.558;2023-05-07T02:19:08;25.87;;;13.40;;
3189;SDS011;1606;51.946;10.558;2023-05-07T02:21:36;24.90;;;13.60;;
3189;SDS011;1606;51.946;10.558;2023-05-07T02:24:04;19.70;;;12.97;;
3189;SDS011;1606;51.946;10.558;2023-05-07T02:26:32;19.60;;;12.73;;
3189;SDS011;1606;51.946;10.558;2023-05-07T02:29:00;23.33;;;14.33;;
3189;SDS011;1606;51.946;10.558;2023-05-07T02:31:28;19.67;;;12.70;;
3189;SDS011;1606;51.946;10.558;2023-05-07T02:33:57;20.67;;;13.83;;
3189;SDS011;1606;51.946;10.558;2023-05-07T02:36:25;21.37;;;13.97;;
3189;SDS011;1606;51.946;10.558;2023-05-07T02:38:53;20.90;;;13.80;;
3189;SDS011;1606;51.946;10.558;2023-05-07T02:41:21;24.50;;;14.70;;
3189;SDS011;1606;51.946;10.558;2023-05-07T02:43:49;21.03;;;13.80;;
3189;SDS011;1606;51.946;10.558;2023-05-07T02:46:16;21.27;;;14.77;;
3189;SDS011;1606;51.946;10.558;2023-05-07T02:48:44;23.50;;;14.70;;
3189;SDS011;1606;51.946;10.558;2023-05-07T02:51:13;26.52;;;16.52;;
3189;SDS011;1606;51.946;10.558;2023-05-07T02:53:41;21.07;;;15.00;;
3189;SDS011;1606;51.946;10.558;2023-05-07T02:56:09;19.87;;;13.70;;
3189;SDS011;1606;51.946;10.558;2023-05-07T02:58:36;22.70;;;13.63;;
3189;SDS011;1606;51.946;10.558;2023-05-07T03:01:05;22.27;;;14.13;;
3189;SDS011;1606;51.946;10.558;2023-05-07T03:03:33;19.80;;;13.97;;
3189;SDS011;1606;51.946;10.558;2023-05-07T03:06:01;23.67;;;14.50;;
3189;SDS011;1606;51.946;10.558;2023-05-07T03:08:30;24.10;;;13.83;;
3189;SDS011;1606;51.946;10.558;2023-05-07T03:10:58;23.07;;;14.73;;
3189;SDS011;1606;51.946;10.558;2023-05-07T03:13:26;21.13;;;13.90;;
3189;SDS011;1606;51.946;10.558;2023-05-07T03:15:54;22.07;;;13.53;;
3189;SDS011;1606;51.946;10.558;2023-05-07T03:18:21;21.40;;;13.77;;
3189;SDS011;1606;51.946;10.558;2023-05-07T03:20:49;24.53;;;14.03;;
3189;SDS011;1606;51.946;10.558;2023-05-07T03:23:18;22.63;;;15.23;;
3189;SDS011;1606;51.946;10.558;2023-05-07T03:25:51;22.30;;;13.50;;
3189;SDS011;1606;51.946;10.558;2023-05-07T03:28:18;23.13;;;14.53;;
3189;SDS011;1606;51.946;10.558;2023-05-07T03:30:46;20.67;;;12.83;;
3189;SDS011;1606;51.946;10.558;2023-05-07T03:33:14;23.75;;;14.10;;
3189;SDS011;1606;51.946;10.558;2023-05-07T03:35:43;22.47;;;13.87;;
3189;SDS011;1606;51.946;10.558;2023-05-07T03:38:11;22.90;;;14.57;;
3189;SDS011;1606;51.946;10.558;2023-05-07T03:40:39;23.70;;;13.20;;
3189;SDS011;1606;51.946;10.558;2023-05-07T03:43:08;19.43;;;12.00;;
3189;SDS011;1606;51.946;10.558;2023-05-07T03:45:35;20.63;;;12.60;;
3189;SDS011;1606;51.946;10.558;2023-05-07T03:48:03;21.13;;;13.37;;
3189;SDS011;1606;51.946;10.558;2023-05-07T03:50:31;21.63;;;12.23;;
3189;SDS011;1606;51.946;10.558;2023-05-07T03:52:59;21.90;;;13.40;;
3189;SDS011;1606;51.946;10.558;2023-05-07T03:55:27;23.63;;;14.80;;
3189;SDS011;1606;51.946;10.558;2023-05-07T03:57:55;20.47;;;12.50;;
3189;SDS011;1606;51.946;10.558;2023-05-07T04:00:24;17.77;;;13.07;;
3189;SDS011;1606;51.946;10.558;2023-05-07T04:02:52;22.13;;;12.30;;
3189;SDS011;1606;51.946;10.558;2023-05-07T04:05:20;18.13;;;12.20;;
3189;SDS011;1606;51.946;10.558;2023-05-07T04:07:48;23.70;;;14.90;;
3189;SDS011;1606;51.946;10.558;2023-05-07T04:10:16;21.37;;;13.90;;
3189;SDS011;1606;51.946;10.558;2023-05-07T04:12:44;28.53;;;15.90;;
3189;SDS011;1606;51.946;10.558;2023-05-07T04:15:11;22.90;;;14.40;;
3189;SDS011;1606;51.946;10.558;2023-05-07T04:17:41;22.03;;;13.10;;
3189;SDS011;1606;51.946;10.558;2023-05-07T04:20:09;19.73;;;13.80;;
3189;SDS011;1606;51.946;10.558;2023-05-07T04:22:38;22.60;;;15.10;;
3189;SDS011;1606;51.946;10.558;2023-05-07T04:25:06;19.17;;;12.30;;
3189;SDS011;1606;51.946;10.558;2023-05-07T04:27:36;20.70;;;12.43;;
3189;SDS011;1606;51.946;10.558;2023-05-07T04:30:05;26.47;;;14.40;;
3189;SDS011;1606;51.946;10.558;2023-05-07T04:32:33;21.33;;;12.63;;
3189;SDS011;1606;51.946;10.558;2023-05-07T04:35:04;19.95;;;12.82;;
3189;SDS011;1606;51.946;10.558;2023-05-07T04:37:33;22.30;;;15.20;;
3189;SDS011;1606;51.946;10.558;2023-05-07T04:40:01;18.97;;;12.43;;
3189;SDS011;1606;51.946;10.558;2023-05-07T04:42:29;19.83;;;12.63;;
3189;SDS011;1606;51.946;10.558;2023-05-07T04:44:57;20.67;;;12.77;;
3189;SDS011;1606;51.946;10.558;2023-05-07T04:47:26;20.40;;;12.40;;
3189;SDS011;1606;51.946;10.558;2023-05-07T04:49:53;18.43;;;12.00;;
3189;SDS011;1606;51.946;10.558;2023-05-07T04:52:22;17.87;;;11.80;;
3189;SDS011;1606;51.946;10.558;2023-05-07T04:54:52;17.30;;;11.53;;
3189;SDS011;1606;51.946;10.558;2023-05-07T04:57:20;17.40;;;12.03;;
3189;SDS011;1606;51.946;10.558;2023-05-07T04:59:48;20.30;;;11.97;;
3189;SDS011;1606;51.946;10.558;2023-05-07T05:02:16;16.70;;;11.43;;
3189;SDS011;1606;51.946;10.558;2023-05-07T05:04:46;18.53;;;11.60;;
3189;SDS011;1606;51.946;10.558;2023-05-07T05:07:13;18.20;;;11.47;;
3189;SDS011;1606;51.946;10.558;2023-05-07T05:09:42;17.33;;;11.90;;
3189;SDS011;1606;51.946;10.558;2023-05-07T05:12:11;19.53;;;10.80;;
3189;SDS011;1606;51.946;10.558;2023-05-07T05:14:38;20.37;;;12.07;;
3189;SDS011;1606;51.946;10.558;2023-05-07T05:17:06;16.67;;;11.17;;
3189;SDS011;1606;51.946;10.558;2023-05-07T05:19:34;16.70;;;10.63;;
3189;SDS011;1606;51.946;10.558;2023-05-07T05:22:02;17.63;;;10.77;;
3189;SDS011;1606;51.946;10.558;2023-05-07T05:24:30;20.67;;;11.70;;
3189;SDS011;1606;51.946;10.558;2023-05-07T05:26:59;19.73;;;12.03;;
3189;SDS011;1606;51.946;10.558;2023-05-07T05:29:27;20.08;;;12.63;;
3189;SDS011;1606;51.946;10.558;2023-05-07T05:31:55;23.70;;;11.70;;
3189;SDS011;1606;51.946;10.558;2023-05-07T05:34:23;19.77;;;12.67;;
3189;SDS011;1606;51.946;10.558;2023-05-07T05:36:50;18.07;;;10.37;;
3189;SDS011;1606;51.946;10.558;2023-05-07T05:39:19;17.90;;;10.80;;
3189;SDS011;1606;51.946;10.558;2023-05-07T05:41:47;17.17;;;10.97;;
3189;SDS011;1606;51.946;10.558;2023-05-07T05:44:16;19.07;;;10.97;;
3189;SDS011;1606;51.946;10.558;2023-05-07T05:46:44;20.20;;;11.50;;
3189;SDS011;1606;51.946;10.558;2023-05-07T05:49:12;27.90;;;11.30;;
3189;SDS011;1606;51.946;10.558;2023-05-07T05:51:40;19.73;;;12.60;;
3189;SDS011;1606;51.946;10.558;2023-05-07T05:54:08;19.17;;;10.80;;
3189;SDS011;1606;51.946;10.558;2023-05-07T05:56:36;19.33;;;11.80;;
3189;SDS011;1606;51.946;10.558;2023-05-07T05:59:04;18.20;;;11.80;;
3189;SDS011;1606;51.946;10.558;2023-05-07T06:01:33;17.90;;;10.53;;
3189;SDS011;1606;51.946;10.558;2023-05-07T06:04:01;19.23;;;12.20;;
3189;SDS011;1606;51.946;10.558;2023-05-07T06:06:29;18.00;;;10.30;;
3189;SDS011;1606;51.946;10.558;2023-05-07T06:08:58;16.73;;;10.10;;
3189;SDS011;1606;51.946;10.558;2023-05-07T06:11:26;16.07;;;10.80;;
3189;SDS011;1606;51.946;10.558;2023-05-07T06:13:54;19.13;;;11.20;;
3189;SDS011;1606;51.946;10.558;2023-05-07T06:16:21;16.77;;;10.83;;
3189;SDS011;1606;51.946;10.558;2023-05-07T06:18:50;18.17;;;10.70;;
3189;SDS011;1606;51.946;10.558;2023-05-07T06:21:18;16.77;;;10.30;;
3189;SDS011;1606;51.946;10.558;2023-05-07T06:23:46;16.10;;;9.30;;
3189;SDS011;1606;51.946;10.558;2023-05-07T06:26:14;15.57;;;9.77;;
3189;SDS011;1606;51.946;10.558;2023-05-07T06:28:41;15.93;;;10.73;;
3189;SDS011;1606;51.946;10.558;2023-05-07T06:31:13;15.47;;;10.07;;
3189;SDS011;1606;51.946;10.558;2023-05-07T06:33:42;13.67;;;8.13;;
3189;SDS011;1606;51.946;10.558;2023-05-07T06:36:12;15.13;;;9.40;;
3189;SDS011;1606;51.946;10.558;2023-05-07T06:38:40;16.67;;;11.47;;
3189;SDS011;1606;51.946;10.558;2023-05-07T06:41:08;16.53;;;9.90;;
3189;SDS011;1606;51.946;10.558;2023-05-07T06:43:35;15.57;;;9.70;;
3189;SDS011;1606;51.946;10.558;2023-05-07T06:46:03;15.67;;;10.93;;
3189;SDS011;1606;51.946;10.558;2023-05-07T06:48:31;15.67;;;10.80;;
3189;SDS011;1606;51.946;10.558;2023-05-07T06:50:59;16.60;;;11.20;;
3189;SDS011;1606;51.946;10.558;2023-05-07T06:53:28;16.33;;;11.23;;
3189;SDS011;1606;51.946;10.558;2023-05-07T06:55:56;15.83;;;10.83;;
3189;SDS011;1606;51.946;10.558;2023-05-07T06:58:24;16.67;;;11.80;;
3189;SDS011;1606;51.946;10.558;2023-05-07T07:00:52;15.50;;;11.40;;
3189;SDS011;1606;51.946;10.558;2023-05-07T07:03:20;16.60;;;12.50;;
3189;SDS011;1606;51.946;10.558;2023-05-07T07:05:47;18.90;;;12.37;;
3189;SDS011;1606;51.946;10.558;2023-05-07T07:08:18;20.43;;;13.40;;
3189;SDS011;1606;51.946;10.558;2023-05-07T07:10:48;20.97;;;12.33;;
3189;SDS011;1606;51.946;10.558;2023-05-07T07:13:16;20.47;;;12.80;;
3189;SDS011;1606;51.946;10.558;2023-05-07T07:15:45;20.07;;;13.80;;
3189;SDS011;1606;51.946;10.558;2023-05-07T07:18:13;22.40;;;15.50;;
3189;SDS011;1606;51.946;10.558;2023-05-07T07:20:41;20.70;;;14.50;;
3189;SDS011;1606;51.946;10.558;2023-05-07T07:23:10;19.30;;;14.10;;
3189;SDS011;1606;51.946;10.558;2023-05-07T07:25:38;19.57;;;13.77;;
3189;SDS011;1606;51.946;10.558;2023-05-07T07:28:07;22.77;;;15.67;;
3189;SDS011;1606;51.946;10.558;2023-05-07T07:30:36;22.40;;;15.50;;
3189;SDS011;1606;51.946;10.558;2023-05-07T07:33:05;21.23;;;14.70;;
3189;SDS011;1606;51.946;10.558;2023-05-07T07:35:33;19.63;;;13.53;;
3189;SDS011;1606;51.946;10.558;2023-05-07T07:38:01;21.10;;;14.33;;
3189;SDS011;1606;51.946;10.558;2023-05-07T07:40:29;23.23;;;14.70;;
3189;SDS011;1606;51.946;10.558;2023-05-07T07:42:56;17.90;;;11.90;;
3189;SDS011;1606;51.946;10.558;2023-05-07T07:45:26;19.43;;;13.47;;
3189;SDS011;1606;51.946;10.558;2023-05-07T07:47:54;20.10;;;12.93;;
3189;SDS011;1606;51.946;10.558;2023-05-07T07:50:22;19.10;;;12.40;;
3189;SDS011;1606;51.946;10.558;2023-05-07T07:53:08;17.50;;;13.07;;
3189;SDS011;1606;51.946;10.558;2023-05-07T07:55:37;17.40;;;12.30;;
3189;SDS011;1606;51.946;10.558;2023-05-07T07:58:05;18.13;;;13.20;;
3189;SDS011;1606;51.946;10.558;2023-05-07T08:00:35;19.00;;;12.53;;
3189;SDS011;1606;51.946;10.558;2023-05-07T08:03:02;17.17;;;12.90;;
3189;SDS011;1606;51.946;10.558;2023-05-07T08:05:31;16.57;;;11.70;;
3189;SDS011;1606;51.946;10.558;2023-05-07T08:07:59;19.63;;;13.77;;
3189;SDS011;1606;51.946;10.558;2023-05-07T08:10:27;19.00;;;13.93;;
3189;SDS011;1606;51.946;10.558;2023-05-07T08:12:54;17.67;;;12.17;;
3189;SDS011;1606;51.946;10.558;2023-05-07T08:15:22;18.20;;;12.90;;
3189;SDS011;1606;51.946;10.558;2023-05-07T08:17:51;18.83;;;12.10;;
3189;SDS011;1606;51.946;10.558;2023-05-07T08:20:19;18.07;;;12.37;;
3189;SDS011;1606;51.946;10.558;2023-05-07T08:22:47;18.73;;;13.27;;
3189;SDS011;1606;51.946;10.558;2023-05-07T08:25:15;18.03;;;13.30;;
3189;SDS011;1606;51.946;10.558;2023-05-07T08:27:43;17.27;;;12.40;;
3189;SDS011;1606;51.946;10.558;2023-05-07T08:30:12;21.20;;;14.40;;
3189;SDS011;1606;51.946;10.558;2023-05-07T08:32:40;17.60;;;11.97;;
3189;SDS011;1606;51.946;10.558;2023-05-07T08:35:09;28.87;;;15.50;;
3189;SDS011;1606;51.946;10.558;2023-05-07T08:37:37;18.03;;;13.83;;
3189;SDS011;1606;51.946;10.558;2023-05-07T08:40:05;21.63;;;14.87;;
3189;SDS011;1606;51.946;10.558;2023-05-07T08:42:38;19.90;;;14.20;;
3189;SDS011;1606;51.946;10.558;2023-05-07T08:45:08;20.70;;;14.47;;
3189;SDS011;1606;51.946;10.558;2023-05-07T08:47:40;20.53;;;14.13;;
3189;SDS011;1606;51.946;10.558;2023-05-07T08:50:12;19.10;;;15.00;;
3189;SDS011;1606;51.946;10.558;2023-05-07T08:52:40;19.83;;;14.60;;
3189;SDS011;1606;51.946;10.558;2023-05-07T08:55:08;20.27;;;14.60;;
3189;SDS011;1606;51.946;10.558;2023-05-07T08:57:37;19.57;;;15.40;;
3189;SDS011;1606;51.946;10.558;2023-05-07T09:00:06;23.13;;;15.75;;
3189;SDS011;1606;51.946;10.558;2023-05-07T09:02:34;21.37;;;16.87;;
3189;SDS011;1606;51.946;10.558;2023-05-07T09:05:02;21.30;;;15.97;;
3189;SDS011;1606;51.946;10.558;2023-05-07T09:07:32;21.83;;;16.67;;
3189;SDS011;1606;51.946;10.558;2023-05-07T09:10:00;21.17;;;14.93;;
3189;SDS011;1606;51.946;10.558;2023-05-07T09:12:29;21.50;;;16.50;;
3189;SDS011;1606;51.946;10.558;2023-05-07T09:14:58;21.33;;;14.70;;
3189;SDS011;1606;51.946;10.558;2023-05-07T09:17:26;19.80;;;14.50;;
3189;SDS011;1606;51.946;10.558;2023-05-07T09:19:54;19.70;;;14.40;;
3189;SDS011;1606;51.946;10.558;2023-05-07T09:22:22;20.87;;;15.20;;
3189;SDS011;1606;51.946;10.558;2023-05-07T09:24:51;18.40;;;13.40;;
3189;SDS011;1606;51.946;10.558;2023-05-07T09:27:19;19.17;;;13.70;;
3189;SDS011;1606;51.946;10.558;2023-05-07T09:29:47;17.83;;;13.37;;
3189;SDS011;1606;51.946;10.558;2023-05-07T09:32:15;19.13;;;13.40;;
3189;SDS011;1606;51.946;10.558;2023-05-07T09:34:43;19.77;;;13.23;;
3189;SDS011;1606;51.946;10.558;2023-05-07T09:37:12;18.20;;;13.37;;
3189;SDS011;1606;51.946;10.558;2023-05-07T09:39:40;18.00;;;13.40;;
3189;SDS011;1606;51.946;10.558;2023-05-07T09:42:11;19.30;;;13.30;;
3189;SDS011;1606;51.946;10.558;2023-05-07T09:44:41;18.40;;;14.32;;
3189;SDS011;1606;51.946;10.558;2023-05-07T09:47:10;17.97;;;12.80;;
3189;SDS011;1606;51.946;10.558;2023-05-07T09:49:41;17.30;;;13.70;;
3189;SDS011;1606;51.946;10.558;2023-05-07T09:52:11;16.80;;;11.60;;
3189;SDS011;1606;51.946;10.558;2023-05-07T09:54:41;17.75;;;12.70;;
3189;SDS011;1606;51.946;10.558;2023-05-07T09:57:11;17.23;;;12.60;;
3189;SDS011;1606;51.946;10.558;2023-05-07T09:59:41;17.47;;;12.40;;
3189;SDS011;1606;51.946;10.558;2023-05-07T10:02:10;16.40;;;11.83;;
3189;SDS011;1606;51.946;10.558;2023-05-07T10:04:39;17.10;;;11.80;;
3189;SDS011;1606;51.946;10.558;2023-05-07T10:07:07;15.57;;;11.40;;
3189;SDS011;1606;51.946;10.558;2023-05-07T10:09:36;15.93;;;11.63;;
3189;SDS011;1606;51.946;10.558;2023-05-07T10:12:08;14.90;;;10.80;;
3189;SDS011;1606;51.946;10.558;2023-05-07T10:14:38;15.90;;;10.90;;
3189;SDS011;1606;51.946;10.558;2023-05-07T10:17:06;15.87;;;11.23;;
3189;SDS011;1606;51.946;10.558;2023-05-07T10:19:34;14.27;;;11.07;;
3189;SDS011;1606;51.946;10.558;2023-05-07T10:22:05;14.40;;;10.87;;
3189;SDS011;1606;51.946;10.558;2023-05-07T10:24:34;14.37;;;9.93;;
3189;SDS011;1606;51.946;10.558;2023-05-07T10:27:04;16.37;;;10.70;;
3189;SDS011;1606;51.946;10.558;2023-05-07T10:29:39;15.23;;;11.30;;
3189;SDS011;1606;51.946;10.558;2023-05-07T10:32:31;16.03;;;10.77;;
3189;SDS011;1606;51.946;10.558;2023-05-07T10:35:06;15.00;;;10.00;;
3189;SDS011;1606;51.946;10.558;2023-05-07T10:37:37;15.55;;;9.80;;
3189;SDS011;1606;51.946;10.558;2023-05-07T10:40:06;15.33;;;10.70;;
3189;SDS011;1606;51.946;10.558;2023-05-07T10:42:35;15.17;;;9.33;;
3189;SDS011;1606;51.946;10.558;2023-05-07T10:45:14;13.93;;;8.80;;
3189;SDS011;1606;51.946;10.558;2023-05-07T10:48:05;15.02;;;10.00;;
3189;SDS011;1606;51.946;10.558;2023-05-07T10:50:52;11.63;;;8.40;;
3189;SDS011;1606;51.946;10.558;2023-05-07T10:53:47;11.20;;;7.60;;
3189;SDS011;1606;51.946;10.558;2023-05-07T10:56:24;12.43;;;7.83;;
3189;SDS011;1606;51.946;10.558;2023-05-07T10:58:59;11.10;;;7.10;;
3189;SDS011;1606;51.946;10.558;2023-05-07T11:02:03;12.10;;;8.00;;
3189;SDS011;1606;51.946;10.558;2023-05-07T11:04:32;11.90;;;7.67;;
3189;SDS011;1606;51.946;10.558;2023-05-07T11:07:21;11.20;;;7.40;;
3189;SDS011;1606;51.946;10.558;2023-05-07T11:10:02;10.90;;;7.10;;
3189;SDS011;1606;51.946;10.558;2023-05-07T11:12:47;12.80;;;8.63;;
3189;SDS011;1606;51.946;10.558;2023-05-07T11:18:07;11.73;;;8.00;;
3189;SDS011;1606;51.946;10.558;2023-05-07T11:20:54;13.37;;;9.13;;
3189;SDS011;1606;51.946;10.558;2023-05-07T11:26:44;14.43;;;9.87;;
3189;SDS011;1606;51.946;10.558;2023-05-07T11:29:13;12.17;;;8.93;;
3189;SDS011;1606;51.946;10.558;2023-05-07T11:31:49;12.27;;;8.17;;
3189;SDS011;1606;51.946;10.558;2023-05-07T11:34:23;13.93;;;9.00;;
3189;SDS011;1606;51.946;10.558;2023-05-07T11:36:52;13.60;;;8.90;;
3189;SDS011;1606;51.946;10.558;2023-05-07T11:39:24;11.93;;;9.03;;
3189;SDS011;1606;51.946;10.558;2023-05-07T11:41:56;12.80;;;8.83;;
3189;SDS011;1606;51.946;10.558;2023-05-07T11:44:24;13.67;;;10.73;;
3189;SDS011;1606;51.946;10.558;2023-05-07T11:46:51;13.10;;;9.80;;
3189;SDS011;1606;51.946;10.558;2023-05-07T11:49:19;14.70;;;9.53;;
3189;SDS011;1606;51.946;10.558;2023-05-07T11:51:49;13.77;;;9.50;;
3189;SDS011;1606;51.946;10.558;2023-05-07T11:54:16;12.50;;;8.90;;
3189;SDS011;1606;51.946;10.558;2023-05-07T11:56:44;14.90;;;10.50;;
3189;SDS011;1606;51.946;10.558;2023-05-07T11:59:16;17.67;;;10.13;;
3189;SDS011;1606;51.946;10.558;2023-05-07T12:01:45;14.57;;;9.97;;
3189;SDS011;1606;51.946;10.558;2023-05-07T12:04:18;12.90;;;10.57;;
3189;SDS011;1606;51.946;10.558;2023-05-07T12:06:53;15.70;;;10.97;;
3189;SDS011;1606;51.946;10.558;2023-05-07T12:09:22;12.53;;;9.90;;
3189;SDS011;1606;51.946;10.558;2023-05-07T12:11:49;14.87;;;10.13;;
3189;SDS011;1606;51.946;10.558;2023-05-07T12:14:19;14.30;;;10.60;;
3189;SDS011;1606;51.946;10.558;2023-05-07T12:16:47;13.67;;;10.83;;
3189;SDS011;1606;51.946;10.558;2023-05-07T12:19:15;13.30;;;10.43;;
3189;SDS011;1606;51.946;10.558;2023-05-07T12:21:43;12.73;;;9.20;;
3189;SDS011;1606;51.946;10.558;2023-05-07T12:24:12;12.30;;;10.20;;
3189;SDS011;1606;51.946;10.558;2023-05-07T12:26:41;13.87;;;9.73;;
3189;SDS011;1606;51.946;10.558;2023-05-07T12:29:10;13.43;;;9.60;;
3189;SDS011;1606;51.946;10.558;2023-05-07T12:31:40;11.60;;;9.00;;
3189;SDS011;1606;51.946;10.558;2023-05-07T12:34:08;10.57;;;8.60;;
3189;SDS011;1606;51.946;10.558;2023-05-07T12:36:37;11.03;;;8.47;;
3189;SDS011;1606;51.946;10.558;2023-05-07T12:39:06;11.97;;;9.30;;
3189;SDS011;1606;51.946;10.558;2023-05-07T12:44:22;11.70;;;9.17;;
3189;SDS011;1606;51.946;10.558;2023-05-07T12:46:51;13.13;;;9.83;;
3189;SDS011;1606;51.946;10.558;2023-05-07T12:49:19;13.37;;;9.60;;
3189;SDS011;1606;51.946;10.558;2023-05-07T12:51:50;12.90;;;10.00;;
3189;SDS011;1606;51.946;10.558;2023-05-07T12:54:27;13.57;;;10.20;;
3189;SDS011;1606;51.946;10.558;2023-05-07T12:57:01;14.20;;;10.97;;
3189;SDS011;1606;51.946;10.558;2023-05-07T12:59:33;14.17;;;10.33;;
3189;SDS011;1606;51.946;10.558;2023-05-07T13:02:02;13.50;;;9.67;;
3189;SDS011;1606;51.946;10.558;2023-05-07T13:04:30;12.57;;;10.87;;
3189;SDS011;1606;51.946;10.558;2023-05-07T13:06:58;13.17;;;10.10;;
3189;SDS011;1606;51.946;10.558;2023-05-07T13:09:26;14.80;;;10.40;;
3189;SDS011;1606;51.946;10.558;2023-05-07T13:11:55;14.77;;;11.27;;
3189;SDS011;1606;51.946;10.558;2023-05-07T13:14:24;14.23;;;11.13;;
3189;SDS011;1606;51.946;10.558;2023-05-07T13:16:52;15.23;;;11.65;;
3189;SDS011;1606;51.946;10.558;2023-05-07T13:19:19;13.60;;;10.83;;
3189;SDS011;1606;51.946;10.558;2023-05-07T13:21:47;16.80;;;11.60;;
3189;SDS011;1606;51.946;10.558;2023-05-07T13:24:15;16.90;;;12.57;;
3189;SDS011;1606;51.946;10.558;2023-05-07T13:26:44;15.00;;;12.20;;
3189;SDS011;1606;51.946;10.558;2023-05-07T13:29:11;15.50;;;12.73;;
3189;SDS011;1606;51.946;10.558;2023-05-07T13:31:40;15.97;;;12.53;;
3189;SDS011;1606;51.946;10.558;2023-05-07T13:34:10;15.80;;;12.43;;
3189;SDS011;1606;51.946;10.558;2023-05-07T13:36:38;16.40;;;12.93;;
3189;SDS011;1606;51.946;10.558;2023-05-07T13:39:07;15.13;;;11.60;;
3189;SDS011;1606;51.946;10.558;2023-05-07T13:41:35;16.37;;;11.90;;
3189;SDS011;1606;51.946;10.558;2023-05-07T13:44:03;15.67;;;11.67;;
3189;SDS011;1606;51.946;10.558;2023-05-07T13:46:31;16.00;;;13.00;;
3189;SDS011;1606;51.946;10.558;2023-05-07T13:49:00;18.37;;;12.80;;
3189;SDS011;1606;51.946;10.558;2023-05-07T13:51:28;14.50;;;12.00;;
3189;SDS011;1606;51.946;10.558;2023-05-07T13:53:56;16.30;;;12.20;;
3189;SDS011;1606;51.946;10.558;2023-05-07T13:56:24;16.57;;;13.00;;
3189;SDS011;1606;51.946;10.558;2023-05-07T13:58:52;13.97;;;11.00;;
3189;SDS011;1606;51.946;10.558;2023-05-07T14:01:26;14.83;;;11.80;;
3189;SDS011;1606;51.946;10.558;2023-05-07T14:03:55;14.20;;;11.97;;
3189;SDS011;1606;51.946;10.558;2023-05-07T14:06:24;15.70;;;11.50;;
3189;SDS011;1606;51.946;10.558;2023-05-07T14:08:52;21.40;;;12.23;;
3189;SDS011;1606;51.946;10.558;2023-05-07T14:11:20;15.80;;;11.50;;
3189;SDS011;1606;51.946;10.558;2023-05-07T14:13:48;15.63;;;12.23;;
3189;SDS011;1606;51.946;10.558;2023-05-07T14:16:16;14.83;;;11.53;;
3189;SDS011;1606;51.946;10.558;2023-05-07T14:18:44;15.77;;;12.40;;
3189;SDS011;1606;51.946;10.558;2023-05-07T14:21:11;18.67;;;14.43;;
3189;SDS011;1606;51.946;10.558;2023-05-07T14:23:41;17.30;;;13.27;;
3189;SDS011;1606;51.946;10.558;2023-05-07T14:26:09;16.00;;;12.33;;
3189;SDS011;1606;51.946;10.558;2023-05-07T14:28:37;17.23;;;12.93;;
3189;SDS011;1606;51.946;10.558;2023-05-07T14:31:05;15.97;;;12.10;;
3189;SDS011;1606;51.946;10.558;2023-05-07T14:33:33;16.97;;;13.33;;
3189;SDS011;1606;51.946;10.558;2023-05-07T14:36:01;17.67;;;14.03;;
3189;SDS011;1606;51.946;10.558;2023-05-07T14:38:29;16.10;;;12.77;;
3189;SDS011;1606;51.946;10.558;2023-05-07T14:41:00;17.63;;;13.93;;
3189;SDS011;1606;51.946;10.558;2023-05-07T14:43:28;16.90;;;13.60;;
3189;SDS011;1606;51.946;10.558;2023-05-07T14:45:55;15.90;;;13.10;;
3189;SDS011;1606;51.946;10.558;2023-05-07T14:48:23;15.97;;;12.67;;
3189;SDS011;1606;51.946;10.558;2023-05-07T14:50:51;17.00;;;14.47;;
3189;SDS011;1606;51.946;10.558;2023-05-07T14:53:19;16.93;;;13.67;;
3189;SDS011;1606;51.946;10.558;2023-05-07T14:55:48;17.13;;;13.27;;